LFBOLFMT

Guest
Details From LFBO - Toulouse Blagnac
To LFMT - Montpellier/Mediterranee
Flight Number -
Tags generated
Created
Modified
Stats Distance 115 nm / 212 km
Max Altitude 9,000 ft / 2,743 m
Waypoints 3
Social Downloads 2
Likes 0
Share VATSIM

Download

Looking for another format? Having issues loading an existing format? Contact us
Advertisement - Login to hide

Notes

Basic altitude profile: - Ascent Rate: 2500ft/min - Ascent Speed: 250kts - Cruise Altitude: 20000ft - Cruise Speed: 300kts - Descent Rate: 2500ft/min - Descent Speed: 260kts Options: - Use NATs: yes - Use PACOTS: yes - Use low airways: no - Use high airways: yes

Route

LFBO NEKTA LFMT

ID Type Via Altitude Latitude Longitude Leg Dist Tot Dist Heading (true) Name
O LFBO APT - 0 ft / 0 m 43.62903˚ 1.36397˚ - 0 nm - Toulouse Blagnac
NEKTA FIX - 9,000 ft / 2,743 m 43.75083˚ 3.02500˚ 72 nm 72 nm 84° / 85° -
O LFMT APT - 0 ft / 0 m 43.57626˚ 3.96326˚ 42 nm 114 nm 104° / 105° Montpellier/Mediterranee

Altitude Profile

Advertisement - Login to hide

LFBO

Details ICAO LFBO (TLS)
Name Toulouse Blagnac
Region France
Timezone Europe/Paris (UTC+1.0)
Stats Elevation 499 ft / 152 m (AMSL)
Location 43.629026° 1.363969°
Runways 2
Magnetic Variation 0.575° E

METAR

LFBO 161700Z AUTO 29010KT CAVOK 06/01 Q1023 NOSIG

Decode

TAF

TAF LFBO 161100Z 1612/1718 29010KT 9999 BKN035 PROB30 TEMPO 1713/1718 -RA BKN014

Decode

Departure Runways

ID Width Length Bearing (true) Bearing (mag) Surface Threshold Offset Overrun Length
14L 148 ft / 45 m 9,923 ft / 3,025 m 143.00° 142.42° Asphalt 0 ft / 0 m 0 ft / 0 m
14R 148 ft / 45 m 11,484 ft / 3,500 m 142.99° 142.41° Asphalt 0 ft / 0 m 295 ft / 90 m
32L 148 ft / 45 m 11,484 ft / 3,500 m 323.01° 322.43° Asphalt 0 ft / 0 m 197 ft / 60 m
32R 148 ft / 45 m 9,923 ft / 3,025 m 323.02° 322.44° Asphalt 0 ft / 0 m 0 ft / 0 m

LFMT

Details ICAO LFMT (MPL)
Name Montpellier/Mediterranee
Region France
Timezone Europe/Paris (UTC+1.0)
Stats Elevation 16 ft / 5 m (AMSL)
Location 43.576262° 3.963261°
Runways 2
Magnetic Variation 1.248° E

METAR

LFMT 161700Z AUTO 29011KT CAVOK 08/M01 Q1018 TEMPO 32015G25KT

Decode

TAF

TAF LFMT 161400Z 1615/1715 30018KT CAVOK TEMPO 1615/1715 32015G25KT

Decode

Destination Runways

ID Width Length Bearing (true) Bearing (mag) Surface Threshold Offset Overrun Length
13L 164 ft / 50 m 8,525 ft / 2,598 m 124.78° 123.53° Asphalt 0 ft / 0 m 0 ft / 0 m
13R 98 ft / 30 m 3,611 ft / 1,101 m 124.80° 123.55° Asphalt 328 ft / 100 m 0 ft / 0 m
31L 98 ft / 30 m 3,611 ft / 1,101 m 304.81° 303.56° Asphalt 0 ft / 0 m 0 ft / 0 m
31R 164 ft / 50 m 8,525 ft / 2,598 m 304.80° 303.55° Asphalt 0 ft / 0 m 0 ft / 0 m

Approach Navaids

Runway Type Ident Frequency Range Bearing (true) Bearing (mag) Slope Elevation
31R Localiser FG 108.55 MHz 27 nm / 50 km 304.75° 303.50° - 16 ft / 5 m (AMSL)
31R Glidescope FG 108.55 MHz 27 nm / 50 km 304.75° 303.50° 3.00° 16 ft / 5 m (AMSL)
31R DME FG 108.55 MHz 27 nm / 50 km - - - 16 ft / 5 m (AMSL)

Popular Alternatives